createdAt,value
2022-09-11T00:00:57.375Z,55.57
2022-09-11T00:03:24.603Z,53.20
2022-09-11T00:05:51.887Z,60.80
2022-09-11T00:08:21.236Z,61.07
2022-09-11T00:10:49.075Z,53.20
2022-09-11T00:13:22.290Z,56.47
2022-09-11T00:15:51.123Z,74.00
2022-09-11T00:18:24.284Z,70.80
2022-09-11T00:20:54.011Z,79.53
2022-09-11T00:23:22.743Z,72.80
2022-09-11T00:25:50.118Z,67.10
2022-09-11T00:28:24.984Z,61.10
2022-09-11T00:31:03.505Z,65.97
2022-09-11T00:33:30.740Z,73.80
2022-09-11T00:35:59.964Z,70.63
2022-09-11T00:38:28.146Z,53.70
2022-09-11T00:40:56.292Z,54.30
2022-09-11T00:43:22.939Z,53.50
2022-09-11T00:45:58.530Z,63.40
2022-09-11T00:48:30.501Z,55.93
2022-09-11T00:50:59.474Z,60.10
2022-09-11T00:53:30.343Z,67.63
2022-09-11T00:56:01.795Z,59.00
2022-09-11T00:58:32.551Z,59.13
2022-09-11T01:00:59.258Z,53.37
2022-09-11T01:03:26.708Z,58.50
2022-09-11T01:05:54.687Z,55.43
2022-09-11T01:08:22.674Z,62.07
2022-09-11T01:10:55.025Z,60.40
2022-09-11T01:13:33.396Z,54.20
2022-09-11T01:16:34.752Z,57.67
2022-09-11T01:19:20.544Z,65.07
2022-09-11T01:21:52.916Z,56.57
2022-09-11T01:24:48.349Z,56.80
2022-09-11T01:27:27.122Z,59.27
2022-09-11T01:30:01.318Z,58.27
2022-09-11T01:32:40.553Z,60.97
2022-09-11T01:35:20.859Z,63.63
2022-09-11T01:38:12.137Z,63.93
2022-09-11T01:40:45.929Z,58.77
2022-09-11T01:43:17.271Z,56.03
2022-09-11T01:45:47.099Z,58.00
2022-09-11T01:48:20.031Z,60.13
2022-09-11T01:50:48.030Z,61.27
2022-09-11T01:53:17.634Z,58.17
2022-09-11T01:55:55.469Z,59.90
2022-09-11T01:58:32.021Z,60.03
2022-09-11T02:01:10.077Z,62.90
2022-09-11T02:03:41.444Z,63.87
2022-09-11T02:06:15.126Z,64.10
2022-09-11T02:08:51.439Z,69.97
2022-09-11T02:11:18.995Z,57.83
2022-09-11T02:14:06.669Z,64.60
2022-09-11T02:16:50.123Z,69.43
2022-09-11T02:19:19.759Z,71.43
2022-09-11T02:21:47.849Z,68.53
2022-09-11T02:24:15.707Z,67.97
2022-09-11T02:26:52.589Z,69.40
2022-09-11T02:29:19.394Z,58.13
2022-09-11T02:31:46.637Z,69.53
2022-09-11T02:34:15.177Z,70.30
2022-09-11T02:36:56.287Z,68.37
2022-09-11T02:39:47.060Z,67.53
2022-09-11T02:42:32.475Z,53.67
2022-09-11T02:45:05.879Z,55.27
2022-09-11T02:47:50.325Z,60.10
2022-09-11T02:50:28.547Z,54.37
2022-09-11T02:53:02.561Z,56.90
2022-09-11T02:56:05.113Z,53.60
2022-09-11T02:58:46.820Z,45.37
2022-09-11T03:01:13.576Z,46.77
2022-09-11T03:03:46.176Z,50.50
2022-09-11T03:06:19.201Z,52.93
2022-09-11T03:08:46.022Z,48.73
2022-09-11T03:11:15.337Z,50.13
2022-09-11T03:13:42.145Z,54.33
2022-09-11T03:16:08.912Z,47.63
2022-09-11T03:18:35.920Z,65.93
2022-09-11T03:21:03.676Z,54.60
2022-09-11T03:23:31.001Z,49.70
2022-09-11T03:25:58.653Z,58.77
2022-09-11T03:28:25.578Z,62.27
2022-09-11T03:30:55.059Z,50.70
2022-09-11T03:33:22.303Z,57.23
2022-09-11T03:35:48.957Z,49.00
2022-09-11T03:38:15.902Z,49.60
2022-09-11T03:40:44.272Z,45.10
2022-09-11T03:43:12.434Z,45.20
2022-09-11T03:45:39.719Z,48.13
2022-09-11T03:48:06.507Z,49.77
2022-09-11T03:50:33.340Z,45.03
2022-09-11T03:53:00.004Z,45.63
2022-09-11T03:55:26.877Z,43.07
2022-09-11T03:57:53.527Z,42.23
2022-09-11T04:00:20.303Z,40.10
2022-09-11T04:02:47.099Z,46.33
2022-09-11T04:05:13.839Z,38.93
2022-09-11T04:07:40.458Z,40.33
2022-09-11T04:10:07.340Z,43.20
2022-09-11T04:12:33.983Z,39.07
2022-09-11T04:15:02.071Z,37.07
2022-09-11T04:17:31.926Z,32.53
2022-09-11T04:19:58.557Z,36.93
2022-09-11T04:22:26.228Z,40.27
2022-09-11T04:24:53.006Z,33.17
2022-09-11T04:27:20.663Z,33.27
2022-09-11T04:29:47.423Z,33.53
2022-09-11T04:32:14.149Z,35.87
2022-09-11T04:34:41.308Z,38.83
2022-09-11T04:37:08.205Z,35.57
2022-09-11T04:39:35.794Z,34.87
2022-09-11T04:42:04.179Z,35.17
2022-09-11T04:44:32.655Z,37.57
2022-09-11T04:46:59.435Z,31.47
2022-09-11T04:49:26.076Z,35.33
2022-09-11T04:51:52.911Z,33.03
2022-09-11T04:54:23.634Z,34.30
2022-09-11T04:56:50.851Z,31.13
2022-09-11T04:59:22.087Z,40.60
2022-09-11T05:01:49.245Z,32.70
2022-09-11T05:04:21.815Z,36.83
2022-09-11T05:06:50.872Z,28.73
2022-09-11T05:09:18.514Z,23.13
2022-09-11T05:11:45.147Z,27.63
2022-09-11T05:14:12.654Z,25.57
2022-09-11T05:16:39.496Z,31.10
2022-09-11T05:19:06.695Z,23.10
2022-09-11T05:21:33.825Z,27.20
2022-09-11T05:24:01.507Z,27.63
2022-09-11T05:26:30.841Z,28.17
2022-09-11T05:29:05.392Z,31.17
2022-09-11T05:31:32.273Z,25.20
2022-09-11T05:34:00.476Z,27.07
2022-09-11T05:36:27.961Z,23.70
2022-09-11T05:38:54.967Z,23.37
2022-09-11T05:41:21.770Z,24.33
2022-09-11T05:43:48.642Z,26.67
2022-09-11T05:46:17.155Z,27.77
2022-09-11T05:48:44.344Z,24.97
2022-09-11T05:51:16.148Z,26.03
2022-09-11T05:53:43.242Z,22.90
2022-09-11T05:56:16.717Z,24.00
2022-09-11T05:58:44.556Z,21.37
2022-09-11T06:01:13.794Z,16.50
2022-09-11T06:03:41.038Z,21.33
2022-09-11T06:06:11.027Z,21.23
2022-09-11T06:08:38.986Z,19.53
2022-09-11T06:11:07.516Z,18.17
2022-09-11T06:13:36.968Z,19.23
2022-09-11T06:16:03.622Z,18.13
2022-09-11T06:18:30.384Z,20.80
2022-09-11T06:21:02.107Z,17.40
2022-09-11T06:23:29.262Z,20.33
2022-09-11T06:26:10.249Z,21.70
2022-09-11T06:28:37.837Z,19.80
2022-09-11T06:31:07.036Z,16.27
2022-09-11T06:33:39.514Z,19.63
2022-09-11T06:36:10.491Z,20.90
2022-09-11T06:38:40.379Z,15.00
2022-09-11T06:41:12.604Z,15.50
2022-09-11T06:43:39.387Z,14.23
2022-09-11T06:46:12.810Z,18.40
2022-09-11T06:48:43.960Z,13.17
2022-09-11T06:51:12.537Z,13.97
2022-09-11T06:53:40.896Z,12.90
2022-09-11T06:56:10.027Z,13.60
2022-09-11T06:58:36.607Z,14.00
2022-09-11T07:01:11.166Z,13.43
2022-09-11T07:03:38.264Z,12.73
2022-09-11T07:06:06.518Z,14.00
2022-09-11T07:08:33.159Z,12.73
2022-09-11T07:11:06.743Z,13.10
2022-09-11T07:13:37.454Z,12.23
2022-09-11T07:16:07.729Z,14.10
2022-09-11T07:18:39.744Z,9.00
2022-09-11T07:21:17.961Z,11.23
2022-09-11T07:23:50.873Z,11.57
2022-09-11T07:26:18.159Z,9.40
2022-09-11T07:28:44.832Z,9.23
2022-09-11T07:31:20.645Z,12.93
2022-09-11T07:33:49.540Z,7.60
2022-09-11T07:36:17.389Z,7.93
2022-09-11T07:38:46.978Z,10.53
2022-09-11T07:41:15.411Z,9.83
2022-09-11T07:43:42.588Z,10.07
2022-09-11T07:46:10.328Z,7.80
2022-09-11T07:48:38.056Z,8.83
2022-09-11T07:51:06.609Z,8.53
2022-09-11T07:53:44.697Z,6.57
2022-09-11T07:56:14.219Z,6.17
2022-09-11T07:58:43.034Z,9.07
2022-09-11T08:01:12.508Z,6.93
2022-09-11T08:03:39.309Z,6.17
2022-09-11T08:06:22.510Z,7.93
2022-09-11T08:08:53.777Z,7.63
2022-09-11T08:11:21.503Z,9.50
2022-09-11T08:13:53.168Z,8.60
2022-09-11T08:16:21.014Z,9.90
2022-09-11T08:18:48.220Z,7.80
2022-09-11T08:21:15.420Z,7.90
2022-09-11T08:23:44.062Z,7.00
2022-09-11T08:26:16.467Z,11.00
2022-09-11T08:28:44.888Z,10.33
2022-09-11T08:31:13.114Z,12.23
2022-09-11T08:33:40.374Z,6.30
2022-09-11T08:36:09.740Z,6.80
2022-09-11T08:38:38.039Z,6.70
2022-09-11T08:41:27.686Z,11.37
2022-09-11T08:43:57.491Z,5.40
2022-09-11T08:46:35.150Z,8.47
2022-09-11T08:49:27.425Z,5.60
2022-09-11T08:51:58.285Z,4.23
2022-09-11T08:54:32.014Z,6.43
2022-09-11T08:57:19.972Z,4.70
2022-09-11T09:00:18.906Z,6.27
2022-09-11T09:02:57.442Z,3.80
2022-09-11T09:05:49.409Z,4.13
2022-09-11T09:08:20.118Z,4.20
2022-09-11T09:11:04.554Z,5.63
2022-09-11T09:13:49.052Z,4.73
2022-09-11T09:16:28.515Z,6.40
2022-09-11T09:19:04.025Z,3.60
2022-09-11T09:21:38.463Z,5.80
2022-09-11T09:24:19.185Z,4.53
2022-09-11T09:26:53.878Z,4.00
2022-09-11T09:29:25.917Z,3.10
2022-09-11T09:32:01.953Z,6.50
2022-09-11T09:34:31.428Z,2.67
2022-09-11T09:37:05.127Z,5.30
2022-09-11T09:39:32.404Z,4.20
2022-09-11T09:42:08.388Z,4.17
2022-09-11T09:44:46.229Z,5.93
2022-09-11T09:47:14.063Z,3.50
2022-09-11T09:49:43.066Z,2.83
2022-09-11T09:52:18.373Z,3.27
2022-09-11T09:54:56.518Z,3.07
2022-09-11T09:57:27.150Z,3.13
2022-09-11T10:00:09.707Z,3.30
2022-09-11T10:02:58.569Z,2.33
2022-09-11T10:05:37.119Z,3.33
2022-09-11T10:08:05.893Z,2.73
2022-09-11T10:10:38.110Z,2.63
2022-09-11T10:13:20.121Z,4.40
2022-09-11T10:15:49.873Z,2.90
2022-09-11T10:18:37.574Z,2.10
2022-09-11T10:21:13.360Z,2.80
2022-09-11T10:23:47.176Z,2.03
2022-09-11T10:26:31.372Z,3.07
2022-09-11T10:29:24.140Z,2.93
2022-09-11T10:32:02.493Z,3.03
2022-09-11T10:34:38.008Z,2.40
2022-09-11T10:37:13.852Z,2.10
2022-09-11T10:39:43.811Z,3.17
2022-09-11T10:42:23.085Z,2.13
2022-09-11T10:44:51.444Z,2.30
2022-09-11T10:47:22.014Z,2.83
2022-09-11T10:49:49.260Z,2.40
2022-09-11T10:52:15.916Z,2.80
2022-09-11T10:55:15.668Z,4.20
2022-09-11T10:57:57.522Z,2.10
2022-09-11T11:00:30.120Z,1.70
2022-09-11T11:03:24.877Z,4.77
2022-09-11T11:06:10.331Z,3.23
2022-09-11T11:09:13.389Z,1.40
2022-09-11T11:11:56.087Z,10.40
2022-09-11T11:14:41.790Z,1.90
2022-09-11T11:17:31.691Z,1.47
2022-09-11T11:20:23.550Z,2.80
2022-09-11T11:23:27.643Z,2.90
2022-09-11T11:26:13.577Z,1.60
2022-09-11T11:29:07.212Z,1.53
2022-09-11T11:31:55.674Z,1.10
2022-09-11T11:34:54.958Z,1.20
2022-09-11T11:37:28.311Z,1.10
2022-09-11T11:40:13.888Z,1.10
2022-09-11T11:42:55.360Z,1.10
2022-09-11T11:45:27.776Z,2.10
2022-09-11T11:47:55.566Z,1.10
2022-09-11T11:50:41.703Z,2.50
2022-09-11T11:53:19.810Z,1.00
2022-09-11T11:56:00.369Z,1.73
2022-09-11T11:58:43.356Z,1.10
2022-09-11T12:01:37.702Z,1.53
2022-09-11T12:04:16.324Z,1.07
2022-09-11T12:06:43.157Z,1.20
2022-09-11T12:09:10.952Z,1.90
2022-09-11T12:11:39.208Z,2.20
2022-09-11T12:14:07.279Z,1.70
2022-09-11T12:16:35.608Z,1.37
2022-09-11T12:19:14.715Z,1.23
2022-09-11T12:22:02.616Z,1.10
2022-09-11T12:24:58.648Z,1.40
2022-09-11T12:27:34.520Z,1.30
2022-09-11T12:30:16.474Z,1.50
2022-09-11T12:32:47.934Z,2.60
2022-09-11T12:35:15.194Z,1.73
2022-09-11T12:37:42.725Z,1.20
2022-09-11T12:40:25.952Z,1.10
2022-09-11T12:42:58.952Z,2.07
2022-09-11T12:45:38.276Z,2.20
2022-09-11T12:48:12.969Z,1.23
2022-09-11T12:50:49.083Z,2.30
2022-09-11T12:53:21.136Z,1.57
2022-09-11T12:55:53.311Z,0.97
2022-09-11T12:58:19.859Z,2.67
2022-09-11T13:00:50.314Z,1.30
2022-09-11T13:03:30.323Z,1.27
2022-09-11T13:06:08.134Z,2.47
2022-09-11T13:09:02.158Z,1.40
2022-09-11T13:11:44.794Z,2.10
2022-09-11T13:14:37.843Z,1.50
2022-09-11T13:17:25.748Z,1.20
2022-09-11T13:19:56.962Z,2.40
2022-09-11T13:22:25.602Z,3.07
2022-09-11T13:25:11.123Z,2.53
2022-09-11T13:27:39.483Z,1.03
2022-09-11T13:30:07.408Z,2.03
2022-09-11T13:32:35.553Z,1.00
2022-09-11T13:35:10.992Z,1.50
2022-09-11T13:37:45.437Z,4.93
2022-09-11T13:40:19.628Z,1.40
2022-09-11T13:42:46.878Z,1.30
2022-09-11T13:45:19.029Z,1.10
2022-09-11T13:47:45.820Z,1.00
2022-09-11T13:50:16.388Z,1.20
2022-09-11T13:52:44.851Z,0.83
2022-09-11T13:55:19.660Z,1.10
2022-09-11T13:58:00.820Z,2.53
2022-09-11T14:00:36.596Z,1.53
2022-09-11T14:03:06.788Z,1.97
2022-09-11T14:05:35.056Z,1.17
2022-09-11T14:08:24.663Z,3.80
2022-09-11T14:10:55.110Z,5.17
2022-09-11T14:13:33.023Z,1.23
2022-09-11T14:16:02.111Z,1.77
2022-09-11T14:18:34.262Z,17.57
2022-09-11T14:21:04.246Z,22.70
2022-09-11T14:23:31.450Z,3.90
2022-09-11T14:26:14.716Z,2.33
2022-09-11T14:29:00.496Z,2.00
2022-09-11T14:31:34.094Z,1.63
2022-09-11T14:34:19.536Z,1.67
2022-09-11T14:37:03.469Z,1.40
2022-09-11T14:39:40.887Z,2.03
2022-09-11T14:42:16.215Z,3.10
2022-09-11T14:44:43.780Z,1.93
2022-09-11T14:47:27.922Z,1.40
2022-09-11T14:49:57.279Z,1.13
2022-09-11T14:52:26.692Z,2.07
2022-09-11T14:54:55.047Z,0.80
2022-09-11T14:57:23.619Z,1.00
2022-09-11T14:59:51.371Z,1.90
2022-09-11T15:02:24.276Z,1.20
2022-09-11T15:04:53.365Z,1.10
2022-09-11T15:07:23.267Z,1.40
2022-09-11T15:09:51.484Z,1.13
2022-09-11T15:12:19.251Z,1.27
2022-09-11T15:14:56.168Z,1.10
2022-09-11T15:17:25.113Z,3.70
2022-09-11T15:19:52.675Z,1.60
2022-09-11T15:22:19.632Z,1.53
2022-09-11T15:24:48.153Z,1.30
2022-09-11T15:27:15.024Z,1.53
2022-09-11T15:29:42.504Z,2.30
2022-09-11T15:32:09.774Z,1.23
2022-09-11T15:34:38.592Z,0.97
2022-09-11T15:37:05.783Z,1.90
2022-09-11T15:39:33.827Z,1.77
2022-09-11T15:42:01.799Z,1.57
2022-09-11T15:44:29.010Z,4.17
2022-09-11T15:46:58.331Z,1.13
2022-09-11T15:49:28.098Z,3.07
2022-09-11T15:51:55.312Z,2.60
2022-09-11T15:54:23.414Z,1.47
2022-09-11T15:56:50.861Z,1.23
2022-09-11T15:59:17.798Z,1.33
2022-09-11T16:01:45.070Z,1.40
2022-09-11T16:04:14.557Z,1.10
2022-09-11T16:06:45.505Z,1.10
2022-09-11T16:09:40.037Z,1.57
2022-09-11T16:12:07.606Z,1.10
2022-09-11T16:14:37.709Z,1.47
2022-09-11T16:17:06.875Z,1.20
2022-09-11T16:19:33.840Z,2.00
2022-09-11T16:22:02.163Z,1.27
2022-09-11T16:24:31.048Z,1.07
2022-09-11T16:26:58.030Z,1.47
2022-09-11T16:29:44.010Z,1.53
2022-09-11T16:32:27.861Z,3.00
2022-09-11T16:34:55.847Z,1.10
2022-09-11T16:37:22.681Z,5.47
2022-09-11T16:39:50.692Z,0.90
2022-09-11T16:42:19.625Z,1.00
2022-09-11T16:44:46.403Z,1.70
2022-09-11T16:47:13.101Z,1.17
2022-09-11T16:50:05.366Z,3.10
2022-09-11T16:52:27.665Z,4.73
2022-09-11T16:54:54.403Z,1.80
2022-09-11T16:57:21.061Z,1.50
2022-09-11T16:59:48.375Z,4.33
2022-09-11T17:02:15.093Z,1.33
2022-09-11T17:04:41.813Z,2.07
2022-09-11T17:07:08.447Z,1.50
2022-09-11T17:09:35.060Z,1.00
2022-09-11T17:12:02.703Z,2.53
2022-09-11T17:14:30.059Z,2.17
2022-09-11T17:16:56.773Z,1.93
2022-09-11T17:19:23.415Z,1.60
2022-09-11T17:21:50.851Z,1.40
2022-09-11T17:24:21.498Z,1.83
2022-09-11T17:26:50.538Z,1.67
2022-09-11T17:29:19.371Z,2.40
2022-09-11T17:31:46.779Z,1.60
2022-09-11T17:34:14.609Z,1.80
2022-09-11T17:36:41.570Z,2.57
2022-09-11T17:39:08.781Z,2.40
2022-09-11T17:41:35.753Z,1.33
2022-09-11T17:44:02.484Z,1.50
2022-09-11T17:46:29.525Z,4.63
2022-09-11T17:48:56.372Z,1.83
2022-09-11T17:51:25.357Z,3.50
2022-09-11T17:53:56.444Z,1.70
2022-09-11T17:56:26.238Z,4.80
2022-09-11T17:58:54.930Z,2.40
2022-09-11T18:01:22.593Z,4.30
2022-09-11T18:03:54.644Z,2.40
2022-09-11T18:06:26.077Z,2.30
2022-09-11T18:08:54.371Z,5.50
2022-09-11T18:11:20.983Z,2.97
2022-09-11T18:13:47.567Z,3.20
2022-09-11T18:16:14.192Z,4.20
2022-09-11T18:18:40.904Z,3.27
2022-09-11T18:21:09.453Z,6.00
2022-09-11T18:23:40.253Z,4.17
2022-09-11T18:26:07.338Z,5.90
2022-09-11T18:28:34.541Z,4.57
2022-09-11T18:31:02.953Z,2.90
2022-09-11T18:33:29.748Z,3.30
2022-09-11T18:36:00.903Z,2.90
2022-09-11T18:38:32.927Z,2.93
2022-09-11T18:41:00.704Z,1.90
2022-09-11T18:43:28.352Z,5.23
2022-09-11T18:45:55.479Z,7.17
2022-09-11T18:48:22.603Z,4.17
2022-09-11T18:50:49.365Z,2.77
2022-09-11T18:53:17.868Z,4.80
2022-09-11T18:55:44.680Z,3.37
2022-09-11T18:58:11.603Z,2.70
2022-09-11T19:00:38.609Z,2.40
2022-09-11T19:03:05.308Z,1.67
2022-09-11T19:05:31.925Z,2.83
2022-09-11T19:08:01.127Z,4.60
2022-09-11T19:10:28.732Z,4.00
2022-09-11T19:12:55.430Z,3.23
2022-09-11T19:15:22.164Z,2.70
2022-09-11T19:17:49.500Z,4.30
2022-09-11T19:20:16.562Z,3.53
2022-09-11T19:22:44.231Z,5.03
2022-09-11T19:25:10.869Z,3.13
2022-09-11T19:27:37.565Z,7.50
2022-09-11T19:30:06.375Z,3.60
2022-09-11T19:32:33.254Z,2.20
2022-09-11T19:35:00.462Z,2.03
2022-09-11T19:37:28.259Z,7.13
2022-09-11T19:39:57.023Z,2.27
2022-09-11T19:42:23.861Z,2.33
2022-09-11T19:44:55.628Z,5.43
2022-09-11T19:47:24.805Z,1.80
2022-09-11T19:49:51.607Z,2.20
2022-09-11T19:52:18.621Z,2.10
2022-09-11T19:54:45.251Z,2.10
2022-09-11T19:57:11.907Z,3.07
2022-09-11T19:59:38.492Z,2.83
2022-09-11T20:02:05.181Z,2.30
2022-09-11T20:04:32.668Z,3.80
2022-09-11T20:07:00.358Z,4.87
2022-09-11T20:09:31.426Z,2.87
2022-09-11T20:12:00.691Z,4.30
2022-09-11T20:14:28.763Z,2.07
2022-09-11T20:16:55.507Z,3.23
2022-09-11T20:19:22.120Z,1.97
2022-09-11T20:21:49.136Z,2.03
2022-09-11T20:24:15.790Z,2.20
2022-09-11T20:26:42.574Z,2.90
2022-09-11T20:29:13.686Z,4.00
2022-09-11T20:31:46.863Z,1.73
2022-09-11T20:34:15.052Z,3.40
2022-09-11T20:36:41.687Z,3.77
2022-09-11T20:39:10.695Z,2.70
2022-09-11T20:41:37.549Z,2.10
2022-09-11T20:44:04.704Z,2.47
2022-09-11T20:46:31.646Z,7.93
2022-09-11T20:49:00.396Z,4.87
2022-09-11T20:51:27.421Z,1.87
2022-09-11T20:53:55.640Z,2.90
2022-09-11T20:56:23.657Z,2.93
2022-09-11T20:58:50.854Z,3.30
2022-09-11T21:01:21.315Z,3.10
2022-09-11T21:03:57.287Z,3.80
2022-09-11T21:06:34.779Z,5.23
2022-09-11T21:09:05.793Z,7.97
2022-09-11T21:11:33.397Z,210.00
2022-09-11T21:14:00.622Z,95.83
2022-09-11T21:16:27.929Z,15.40
2022-09-11T21:18:57.291Z,5.77
2022-09-11T21:21:25.253Z,4.83
2022-09-11T21:24:01.503Z,3.80
2022-09-11T21:26:29.238Z,5.73
2022-09-11T21:29:01.788Z,5.60
2022-09-11T21:31:28.682Z,4.13
2022-09-11T21:33:55.481Z,7.27
2022-09-11T21:36:22.642Z,3.70
2022-09-11T21:38:49.433Z,3.60
2022-09-11T21:41:16.081Z,4.53
2022-09-11T21:43:42.924Z,5.20
2022-09-11T21:46:10.608Z,3.13
2022-09-11T21:48:39.510Z,3.97
2022-09-11T21:51:09.922Z,4.00
2022-09-11T21:53:41.251Z,6.93
2022-09-11T21:56:19.889Z,4.53
2022-09-11T21:58:47.716Z,5.50
2022-09-11T22:01:14.772Z,9.50
2022-09-11T22:03:41.623Z,6.13
2022-09-11T22:06:10.242Z,5.10
2022-09-11T22:08:41.393Z,5.93
2022-09-11T22:11:08.418Z,9.10
2022-09-11T22:13:36.219Z,6.50
2022-09-11T22:16:09.574Z,6.33
2022-09-11T22:18:40.349Z,12.30
2022-09-11T22:21:07.874Z,5.57
2022-09-11T22:23:34.614Z,9.43
2022-09-11T22:26:07.538Z,7.50
2022-09-11T22:28:35.193Z,5.63
2022-09-11T22:31:07.570Z,7.20
2022-09-11T22:33:35.828Z,6.10
2022-09-11T22:36:08.562Z,6.93
2022-09-11T22:38:35.224Z,6.73
2022-09-11T22:41:01.900Z,9.67
2022-09-11T22:43:28.565Z,3.60
2022-09-11T22:45:55.254Z,3.73
2022-09-11T22:48:22.090Z,5.53
2022-09-11T22:50:48.733Z,3.17
2022-09-11T22:53:15.604Z,5.47
2022-09-11T22:55:45.912Z,3.80
2022-09-11T22:58:12.794Z,4.53
2022-09-11T23:00:40.519Z,55.30
2022-09-11T23:03:07.341Z,109.87
2022-09-11T23:05:52.691Z,30.07
2022-09-11T23:08:19.994Z,7.90
2022-09-11T23:10:47.432Z,9.50
2022-09-11T23:13:14.520Z,3.50
2022-09-11T23:15:41.134Z,6.23
2022-09-11T23:18:07.727Z,9.87
2022-09-11T23:20:34.949Z,4.60
2022-09-11T23:23:03.740Z,7.93
2022-09-11T23:25:31.606Z,4.80
2022-09-11T23:27:58.308Z,4.40
2022-09-11T23:30:24.911Z,4.50
2022-09-11T23:32:53.373Z,6.10
2022-09-11T23:35:20.028Z,6.90
2022-09-11T23:37:46.624Z,3.40
2022-09-11T23:40:13.328Z,5.03
2022-09-11T23:42:40.022Z,4.53
2022-09-11T23:45:07.489Z,9.73
2022-09-11T23:47:34.158Z,5.30
2022-09-11T23:50:02.076Z,4.13
2022-09-11T23:52:29.188Z,4.33
2022-09-11T23:54:55.805Z,6.47
2022-09-11T23:57:22.383Z,4.37
2022-09-11T23:59:48.973Z,7.80
